sensor_id;sensor_type;location;lat;lon;timestamp;P1;durP1;ratioP1;P2;durP2;ratioP2
17686;SDS011;8962;52.538;13.266;2023-02-01T00:00:00;24.08;;;3.72;;
17686;SDS011;8962;52.538;13.266;2023-02-01T00:02:31;21.50;;;4.45;;
17686;SDS011;8962;52.538;13.266;2023-02-01T00:04:58;25.08;;;4.20;;
17686;SDS011;8962;52.538;13.266;2023-02-01T00:07:25;22.92;;;4.13;;
17686;SDS011;8962;52.538;13.266;2023-02-01T00:09:52;19.48;;;3.60;;
17686;SDS011;8962;52.538;13.266;2023-02-01T00:12:19;26.05;;;3.85;;
17686;SDS011;8962;52.538;13.266;2023-02-01T00:14:46;21.70;;;3.67;;
17686;SDS011;8962;52.538;13.266;2023-02-01T00:17:13;20.50;;;3.95;;
17686;SDS011;8962;52.538;13.266;2023-02-01T00:19:42;19.10;;;3.78;;
17686;SDS011;8962;52.538;13.266;2023-02-01T00:22:09;22.63;;;4.10;;
17686;SDS011;8962;52.538;13.266;2023-02-01T00:24:36;23.35;;;3.90;;
17686;SDS011;8962;52.538;13.266;2023-02-01T00:27:03;27.85;;;4.18;;
17686;SDS011;8962;52.538;13.266;2023-02-01T00:29:30;23.10;;;4.45;;
17686;SDS011;8962;52.538;13.266;2023-02-01T00:31:57;24.65;;;3.88;;
17686;SDS011;8962;52.538;13.266;2023-02-01T00:34:24;25.33;;;4.40;;
17686;SDS011;8962;52.538;13.266;2023-02-01T00:36:53;17.00;;;3.50;;
17686;SDS011;8962;52.538;13.266;2023-02-01T00:39:21;21.15;;;3.85;;
17686;SDS011;8962;52.538;13.266;2023-02-01T00:41:48;25.33;;;3.35;;
17686;SDS011;8962;52.538;13.266;2023-02-01T00:44:15;19.35;;;3.10;;
17686;SDS011;8962;52.538;13.266;2023-02-01T00:46:43;17.02;;;3.03;;
17686;SDS011;8962;52.538;13.266;2023-02-01T00:49:10;17.52;;;4.18;;
17686;SDS011;8962;52.538;13.266;2023-02-01T00:51:37;19.95;;;3.50;;
17686;SDS011;8962;52.538;13.266;2023-02-01T00:54:05;23.02;;;3.40;;
17686;SDS011;8962;52.538;13.266;2023-02-01T00:56:33;18.20;;;3.58;;
17686;SDS011;8962;52.538;13.266;2023-02-01T00:59:00;20.77;;;3.60;;
17686;SDS011;8962;52.538;13.266;2023-02-01T01:01:27;20.88;;;3.42;;
17686;SDS011;8962;52.538;13.266;2023-02-01T01:03:55;20.90;;;3.55;;
17686;SDS011;8962;52.538;13.266;2023-02-01T01:06:24;13.95;;;3.15;;
17686;SDS011;8962;52.538;13.266;2023-02-01T01:08:53;21.85;;;2.97;;
17686;SDS011;8962;52.538;13.266;2023-02-01T01:11:23;20.55;;;3.80;;
17686;SDS011;8962;52.538;13.266;2023-02-01T01:13:53;17.52;;;3.63;;
17686;SDS011;8962;52.538;13.266;2023-02-01T01:16:21;19.38;;;3.90;;
17686;SDS011;8962;52.538;13.266;2023-02-01T01:18:49;21.05;;;3.60;;
17686;SDS011;8962;52.538;13.266;2023-02-01T01:21:17;13.93;;;3.13;;
17686;SDS011;8962;52.538;13.266;2023-02-01T01:23:45;11.55;;;3.50;;
17686;SDS011;8962;52.538;13.266;2023-02-01T01:26:14;16.95;;;3.45;;
17686;SDS011;8962;52.538;13.266;2023-02-01T01:28:44;18.27;;;2.88;;
17686;SDS011;8962;52.538;13.266;2023-02-01T01:31:11;15.77;;;3.38;;
17686;SDS011;8962;52.538;13.266;2023-02-01T01:33:39;17.92;;;2.80;;
17686;SDS011;8962;52.538;13.266;2023-02-01T01:36:09;16.38;;;3.65;;
17686;SDS011;8962;52.538;13.266;2023-02-01T01:38:37;20.73;;;3.50;;
17686;SDS011;8962;52.538;13.266;2023-02-01T01:41:05;22.42;;;3.25;;
17686;SDS011;8962;52.538;13.266;2023-02-01T01:43:51;20.10;;;3.60;;
17686;SDS011;8962;52.538;13.266;2023-02-01T01:46:22;15.23;;;3.28;;
17686;SDS011;8962;52.538;13.266;2023-02-01T01:48:52;23.85;;;3.63;;
17686;SDS011;8962;52.538;13.266;2023-02-01T01:51:23;21.30;;;3.60;;
17686;SDS011;8962;52.538;13.266;2023-02-01T01:53:57;20.25;;;3.05;;
17686;SDS011;8962;52.538;13.266;2023-02-01T01:56:27;14.80;;;3.17;;
17686;SDS011;8962;52.538;13.266;2023-02-01T01:58:59;18.67;;;3.42;;
17686;SDS011;8962;52.538;13.266;2023-02-01T02:01:28;22.05;;;3.65;;
17686;SDS011;8962;52.538;13.266;2023-02-01T02:03:55;23.23;;;4.22;;
17686;SDS011;8962;52.538;13.266;2023-02-01T02:06:28;15.07;;;3.10;;
17686;SDS011;8962;52.538;13.266;2023-02-01T02:09:03;23.20;;;3.70;;
17686;SDS011;8962;52.538;13.266;2023-02-01T02:11:30;21.92;;;3.33;;
17686;SDS011;8962;52.538;13.266;2023-02-01T02:13:57;17.08;;;3.50;;
17686;SDS011;8962;52.538;13.266;2023-02-01T02:16:31;17.13;;;3.95;;
17686;SDS011;8962;52.538;13.266;2023-02-01T02:19:22;21.33;;;4.03;;
17686;SDS011;8962;52.538;13.266;2023-02-01T02:22:10;19.67;;;3.58;;
17686;SDS011;8962;52.538;13.266;2023-02-01T02:25:16;13.18;;;3.45;;
17686;SDS011;8962;52.538;13.266;2023-02-01T02:27:50;21.25;;;4.00;;
17686;SDS011;8962;52.538;13.266;2023-02-01T02:30:34;19.60;;;3.72;;
17686;SDS011;8962;52.538;13.266;2023-02-01T02:36:15;21.60;;;3.45;;
17686;SDS011;8962;52.538;13.266;2023-02-01T02:38:49;24.20;;;4.00;;
17686;SDS011;8962;52.538;13.266;2023-02-01T02:41:23;23.17;;;3.40;;
17686;SDS011;8962;52.538;13.266;2023-02-01T02:44:17;21.10;;;3.53;;
17686;SDS011;8962;52.538;13.266;2023-02-01T02:47:13;20.95;;;3.53;;
17686;SDS011;8962;52.538;13.266;2023-02-01T02:49:51;20.30;;;4.00;;
17686;SDS011;8962;52.538;13.266;2023-02-01T02:52:38;23.55;;;3.72;;
17686;SDS011;8962;52.538;13.266;2023-02-01T02:55:28;23.80;;;3.60;;
17686;SDS011;8962;52.538;13.266;2023-02-01T02:57:57;19.60;;;4.32;;
17686;SDS011;8962;52.538;13.266;2023-02-01T03:00:43;20.08;;;3.65;;
17686;SDS011;8962;52.538;13.266;2023-02-01T03:03:29;20.15;;;4.03;;
17686;SDS011;8962;52.538;13.266;2023-02-01T03:06:14;21.63;;;3.67;;
17686;SDS011;8962;52.538;13.266;2023-02-01T03:08:45;21.25;;;3.78;;
17686;SDS011;8962;52.538;13.266;2023-02-01T03:11:12;19.42;;;3.67;;
17686;SDS011;8962;52.538;13.266;2023-02-01T03:13:42;17.92;;;3.80;;
17686;SDS011;8962;52.538;13.266;2023-02-01T03:16:13;20.85;;;3.95;;
17686;SDS011;8962;52.538;13.266;2023-02-01T03:18:48;19.35;;;4.22;;
17686;SDS011;8962;52.538;13.266;2023-02-01T03:21:21;17.88;;;4.13;;
17686;SDS011;8962;52.538;13.266;2023-02-01T03:23:52;19.83;;;3.53;;
17686;SDS011;8962;52.538;13.266;2023-02-01T03:26:24;21.75;;;4.00;;
17686;SDS011;8962;52.538;13.266;2023-02-01T03:28:56;25.55;;;4.30;;
17686;SDS011;8962;52.538;13.266;2023-02-01T03:31:27;17.40;;;3.92;;
17686;SDS011;8962;52.538;13.266;2023-02-01T03:33:55;17.20;;;3.88;;
17686;SDS011;8962;52.538;13.266;2023-02-01T03:36:24;26.50;;;4.20;;
17686;SDS011;8962;52.538;13.266;2023-02-01T03:38:58;20.00;;;3.85;;
17686;SDS011;8962;52.538;13.266;2023-02-01T03:41:33;22.92;;;3.78;;
17686;SDS011;8962;52.538;13.266;2023-02-01T03:44:04;23.00;;;3.58;;
17686;SDS011;8962;52.538;13.266;2023-02-01T03:46:40;22.45;;;4.25;;
17686;SDS011;8962;52.538;13.266;2023-02-01T03:49:14;27.65;;;4.30;;
17686;SDS011;8962;52.538;13.266;2023-02-01T03:51:45;23.63;;;4.03;;
17686;SDS011;8962;52.538;13.266;2023-02-01T03:54:15;21.00;;;3.85;;
17686;SDS011;8962;52.538;13.266;2023-02-01T03:56:44;22.25;;;4.25;;
17686;SDS011;8962;52.538;13.266;2023-02-01T03:59:14;24.50;;;4.38;;
17686;SDS011;8962;52.538;13.266;2023-02-01T04:01:41;24.08;;;3.97;;
17686;SDS011;8962;52.538;13.266;2023-02-01T04:04:08;23.95;;;4.47;;
17686;SDS011;8962;52.538;13.266;2023-02-01T04:06:36;26.17;;;4.70;;
17686;SDS011;8962;52.538;13.266;2023-02-01T04:09:06;26.58;;;4.82;;
17686;SDS011;8962;52.538;13.266;2023-02-01T04:11:34;23.20;;;4.28;;
17686;SDS011;8962;52.538;13.266;2023-02-01T04:14:01;22.63;;;4.95;;
17686;SDS011;8962;52.538;13.266;2023-02-01T04:16:29;24.75;;;5.07;;
17686;SDS011;8962;52.538;13.266;2023-02-01T04:18:57;23.15;;;4.30;;
17686;SDS011;8962;52.538;13.266;2023-02-01T04:21:24;21.33;;;3.90;;
17686;SDS011;8962;52.538;13.266;2023-02-01T04:23:52;22.92;;;4.38;;
17686;SDS011;8962;52.538;13.266;2023-02-01T04:26:19;18.80;;;4.30;;
17686;SDS011;8962;52.538;13.266;2023-02-01T04:28:48;25.85;;;5.68;;
17686;SDS011;8962;52.538;13.266;2023-02-01T04:31:16;23.67;;;5.25;;
17686;SDS011;8962;52.538;13.266;2023-02-01T04:33:50;24.00;;;3.95;;
17686;SDS011;8962;52.538;13.266;2023-02-01T04:36:18;22.80;;;4.05;;
17686;SDS011;8962;52.538;13.266;2023-02-01T04:38:47;22.27;;;4.43;;
17686;SDS011;8962;52.538;13.266;2023-02-01T04:41:14;21.88;;;4.15;;
17686;SDS011;8962;52.538;13.266;2023-02-01T04:43:44;24.60;;;4.18;;
17686;SDS011;8962;52.538;13.266;2023-02-01T04:46:12;26.98;;;4.22;;
17686;SDS011;8962;52.538;13.266;2023-02-01T04:48:40;24.88;;;4.65;;
17686;SDS011;8962;52.538;13.266;2023-02-01T04:51:07;22.23;;;4.68;;
17686;SDS011;8962;52.538;13.266;2023-02-01T04:53:35;27.80;;;4.88;;
17686;SDS011;8962;52.538;13.266;2023-02-01T04:56:03;23.17;;;4.60;;
17686;SDS011;8962;52.538;13.266;2023-02-01T04:58:30;20.40;;;4.93;;
17686;SDS011;8962;52.538;13.266;2023-02-01T05:00:57;28.45;;;4.38;;
17686;SDS011;8962;52.538;13.266;2023-02-01T05:03:26;22.08;;;4.22;;
17686;SDS011;8962;52.538;13.266;2023-02-01T05:05:53;24.05;;;5.28;;
17686;SDS011;8962;52.538;13.266;2023-02-01T05:08:20;18.67;;;4.20;;
17686;SDS011;8962;52.538;13.266;2023-02-01T05:10:50;30.13;;;4.28;;
17686;SDS011;8962;52.538;13.266;2023-02-01T05:13:17;23.77;;;4.32;;
17686;SDS011;8962;52.538;13.266;2023-02-01T05:16:01;24.98;;;4.43;;
17686;SDS011;8962;52.538;13.266;2023-02-01T05:18:30;21.42;;;4.32;;
17686;SDS011;8962;52.538;13.266;2023-02-01T05:20:57;18.23;;;4.07;;
17686;SDS011;8962;52.538;13.266;2023-02-01T05:23:24;20.98;;;4.38;;
17686;SDS011;8962;52.538;13.266;2023-02-01T05:25:51;21.27;;;4.22;;
17686;SDS011;8962;52.538;13.266;2023-02-01T05:28:18;26.92;;;3.75;;
17686;SDS011;8962;52.538;13.266;2023-02-01T05:30:45;24.38;;;3.70;;
17686;SDS011;8962;52.538;13.266;2023-02-01T05:33:11;23.48;;;4.70;;
17686;SDS011;8962;52.538;13.266;2023-02-01T05:35:40;21.45;;;4.30;;
17686;SDS011;8962;52.538;13.266;2023-02-01T05:38:07;22.50;;;4.22;;
17686;SDS011;8962;52.538;13.266;2023-02-01T05:40:34;22.48;;;4.45;;
17686;SDS011;8962;52.538;13.266;2023-02-01T05:43:01;24.13;;;5.05;;
17686;SDS011;8962;52.538;13.266;2023-02-01T05:45:28;28.08;;;4.43;;
17686;SDS011;8962;52.538;13.266;2023-02-01T05:47:55;29.83;;;4.97;;
17686;SDS011;8962;52.538;13.266;2023-02-01T05:50:22;22.90;;;4.55;;
17686;SDS011;8962;52.538;13.266;2023-02-01T05:52:57;22.67;;;4.10;;
17686;SDS011;8962;52.538;13.266;2023-02-01T05:55:24;23.27;;;4.18;;
17686;SDS011;8962;52.538;13.266;2023-02-01T05:57:51;20.42;;;3.67;;
17686;SDS011;8962;52.538;13.266;2023-02-01T06:00:18;22.70;;;4.18;;
17686;SDS011;8962;52.538;13.266;2023-02-01T06:02:46;23.73;;;4.10;;
17686;SDS011;8962;52.538;13.266;2023-02-01T06:05:13;27.88;;;5.32;;
17686;SDS011;8962;52.538;13.266;2023-02-01T06:07:40;22.17;;;4.28;;
17686;SDS011;8962;52.538;13.266;2023-02-01T06:10:09;22.90;;;4.68;;
17686;SDS011;8962;52.538;13.266;2023-02-01T06:12:36;28.10;;;4.43;;
17686;SDS011;8962;52.538;13.266;2023-02-01T06:15:04;22.90;;;4.70;;
17686;SDS011;8962;52.538;13.266;2023-02-01T06:17:31;26.85;;;4.65;;
17686;SDS011;8962;52.538;13.266;2023-02-01T06:19:58;24.08;;;4.68;;
17686;SDS011;8962;52.538;13.266;2023-02-01T06:22:25;18.35;;;4.65;;
17686;SDS011;8962;52.538;13.266;2023-02-01T06:24:53;23.67;;;4.43;;
17686;SDS011;8962;52.538;13.266;2023-02-01T06:27:21;26.15;;;4.88;;
17686;SDS011;8962;52.538;13.266;2023-02-01T06:29:48;23.90;;;4.43;;
17686;SDS011;8962;52.538;13.266;2023-02-01T06:32:15;19.33;;;3.90;;
17686;SDS011;8962;52.538;13.266;2023-02-01T06:34:42;22.17;;;4.90;;
17686;SDS011;8962;52.538;13.266;2023-02-01T06:37:09;26.42;;;4.68;;
17686;SDS011;8962;52.538;13.266;2023-02-01T06:39:37;17.50;;;4.38;;
17686;SDS011;8962;52.538;13.266;2023-02-01T06:42:04;22.70;;;4.43;;
17686;SDS011;8962;52.538;13.266;2023-02-01T06:44:33;21.75;;;4.80;;
17686;SDS011;8962;52.538;13.266;2023-02-01T06:47:00;19.10;;;4.13;;
17686;SDS011;8962;52.538;13.266;2023-02-01T06:49:27;22.27;;;3.97;;
17686;SDS011;8962;52.538;13.266;2023-02-01T06:51:54;20.10;;;4.47;;
17686;SDS011;8962;52.538;13.266;2023-02-01T06:54:21;18.02;;;4.15;;
17686;SDS011;8962;52.538;13.266;2023-02-01T06:56:48;22.80;;;4.75;;
17686;SDS011;8962;52.538;13.266;2023-02-01T06:59:15;20.58;;;3.83;;
17686;SDS011;8962;52.538;13.266;2023-02-01T07:01:43;20.13;;;4.90;;
17686;SDS011;8962;52.538;13.266;2023-02-01T07:04:10;21.85;;;4.68;;
17686;SDS011;8962;52.538;13.266;2023-02-01T07:06:38;23.20;;;5.25;;
17686;SDS011;8962;52.538;13.266;2023-02-01T07:09:05;18.83;;;4.43;;
17686;SDS011;8962;52.538;13.266;2023-02-01T07:11:32;18.52;;;4.38;;
17686;SDS011;8962;52.538;13.266;2023-02-01T07:13:59;17.92;;;3.55;;
17686;SDS011;8962;52.538;13.266;2023-02-01T07:16:26;19.88;;;4.13;;
17686;SDS011;8962;52.538;13.266;2023-02-01T07:18:55;21.35;;;4.15;;
17686;SDS011;8962;52.538;13.266;2023-02-01T07:21:22;21.33;;;4.18;;
17686;SDS011;8962;52.538;13.266;2023-02-01T07:23:49;23.50;;;3.88;;
17686;SDS011;8962;52.538;13.266;2023-02-01T07:26:16;23.10;;;4.75;;
17686;SDS011;8962;52.538;13.266;2023-02-01T07:28:43;22.77;;;4.32;;
17686;SDS011;8962;52.538;13.266;2023-02-01T07:31:14;24.23;;;4.97;;
17686;SDS011;8962;52.538;13.266;2023-02-01T07:33:43;29.33;;;5.00;;
17686;SDS011;8962;52.538;13.266;2023-02-01T07:36:12;22.92;;;5.13;;
17686;SDS011;8962;52.538;13.266;2023-02-01T07:38:41;18.98;;;4.32;;
17686;SDS011;8962;52.538;13.266;2023-02-01T07:41:08;20.08;;;4.43;;
17686;SDS011;8962;52.538;13.266;2023-02-01T07:43:35;28.25;;;4.57;;
17686;SDS011;8962;52.538;13.266;2023-02-01T07:46:03;23.10;;;4.68;;
17686;SDS011;8962;52.538;13.266;2023-02-01T07:48:31;20.90;;;4.30;;
17686;SDS011;8962;52.538;13.266;2023-02-01T07:51:00;18.42;;;4.28;;
17686;SDS011;8962;52.538;13.266;2023-02-01T07:53:30;19.50;;;4.63;;
17686;SDS011;8962;52.538;13.266;2023-02-01T07:55:58;26.02;;;4.95;;
17686;SDS011;8962;52.538;13.266;2023-02-01T07:58:25;21.30;;;4.82;;
17686;SDS011;8962;52.538;13.266;2023-02-01T08:00:53;21.50;;;4.65;;
17686;SDS011;8962;52.538;13.266;2023-02-01T08:03:38;16.95;;;4.57;;
17686;SDS011;8962;52.538;13.266;2023-02-01T08:06:06;23.42;;;5.53;;
17686;SDS011;8962;52.538;13.266;2023-02-01T08:08:34;15.93;;;4.60;;
17686;SDS011;8962;52.538;13.266;2023-02-01T08:11:02;15.98;;;4.57;;
17686;SDS011;8962;52.538;13.266;2023-02-01T08:13:31;17.38;;;4.55;;
17686;SDS011;8962;52.538;13.266;2023-02-01T08:16:00;13.77;;;4.75;;
17686;SDS011;8962;52.538;13.266;2023-02-01T08:18:28;18.23;;;4.40;;
17686;SDS011;8962;52.538;13.266;2023-02-01T08:20:56;16.77;;;4.43;;
17686;SDS011;8962;52.538;13.266;2023-02-01T08:23:23;17.60;;;4.53;;
17686;SDS011;8962;52.538;13.266;2023-02-01T08:25:52;17.73;;;4.00;;
17686;SDS011;8962;52.538;13.266;2023-02-01T08:28:19;13.45;;;4.45;;
17686;SDS011;8962;52.538;13.266;2023-02-01T08:30:47;12.13;;;4.20;;
17686;SDS011;8962;52.538;13.266;2023-02-01T08:33:14;11.73;;;4.40;;
17686;SDS011;8962;52.538;13.266;2023-02-01T08:35:41;14.23;;;5.20;;
17686;SDS011;8962;52.538;13.266;2023-02-01T08:38:09;14.32;;;4.65;;
17686;SDS011;8962;52.538;13.266;2023-02-01T08:40:36;13.10;;;4.57;;
17686;SDS011;8962;52.538;13.266;2023-02-01T08:43:04;14.15;;;4.68;;
17686;SDS011;8962;52.538;13.266;2023-02-01T08:45:31;12.90;;;4.03;;
17686;SDS011;8962;52.538;13.266;2023-02-01T08:47:59;11.35;;;4.25;;
17686;SDS011;8962;52.538;13.266;2023-02-01T08:50:26;13.77;;;4.38;;
17686;SDS011;8962;52.538;13.266;2023-02-01T08:52:53;13.00;;;4.10;;
17686;SDS011;8962;52.538;13.266;2023-02-01T08:55:21;15.27;;;4.45;;
17686;SDS011;8962;52.538;13.266;2023-02-01T08:57:48;9.73;;;3.67;;
17686;SDS011;8962;52.538;13.266;2023-02-01T09:00:17;8.20;;;3.67;;
17686;SDS011;8962;52.538;13.266;2023-02-01T09:02:44;8.02;;;3.30;;
17686;SDS011;8962;52.538;13.266;2023-02-01T09:05:12;6.93;;;2.65;;
17686;SDS011;8962;52.538;13.266;2023-02-01T09:07:41;11.70;;;3.10;;
17686;SDS011;8962;52.538;13.266;2023-02-01T09:10:09;7.70;;;2.92;;
17686;SDS011;8962;52.538;13.266;2023-02-01T09:12:36;7.05;;;2.28;;
17686;SDS011;8962;52.538;13.266;2023-02-01T09:15:04;7.28;;;2.55;;
17686;SDS011;8962;52.538;13.266;2023-02-01T09:17:33;6.60;;;2.50;;
17686;SDS011;8962;52.538;13.266;2023-02-01T09:20:01;10.00;;;2.25;;
17686;SDS011;8962;52.538;13.266;2023-02-01T09:22:29;5.80;;;2.03;;
17686;SDS011;8962;52.538;13.266;2023-02-01T09:24:56;4.05;;;1.75;;
17686;SDS011;8962;52.538;13.266;2023-02-01T09:27:23;5.43;;;1.98;;
17686;SDS011;8962;52.538;13.266;2023-02-01T09:29:50;5.85;;;2.13;;
17686;SDS011;8962;52.538;13.266;2023-02-01T09:32:18;6.30;;;2.17;;
17686;SDS011;8962;52.538;13.266;2023-02-01T09:34:47;7.43;;;2.00;;
17686;SDS011;8962;52.538;13.266;2023-02-01T09:37:14;4.28;;;1.80;;
17686;SDS011;8962;52.538;13.266;2023-02-01T09:39:41;10.35;;;2.10;;
17686;SDS011;8962;52.538;13.266;2023-02-01T09:42:14;3.33;;;1.63;;
17686;SDS011;8962;52.538;13.266;2023-02-01T09:44:54;5.82;;;1.88;;
17686;SDS011;8962;52.538;13.266;2023-02-01T09:47:32;5.70;;;2.22;;
17686;SDS011;8962;52.538;13.266;2023-02-01T09:50:04;5.25;;;1.50;;
17686;SDS011;8962;52.538;13.266;2023-02-01T09:52:36;4.60;;;1.48;;
17686;SDS011;8962;52.538;13.266;2023-02-01T09:55:11;8.60;;;1.65;;
17686;SDS011;8962;52.538;13.266;2023-02-01T09:57:44;2.58;;;1.50;;
17686;SDS011;8962;52.538;13.266;2023-02-01T10:00:18;3.67;;;2.10;;
17686;SDS011;8962;52.538;13.266;2023-02-01T10:02:50;4.13;;;1.60;;
17686;SDS011;8962;52.538;13.266;2023-02-01T10:05:23;7.25;;;2.08;;
17686;SDS011;8962;52.538;13.266;2023-02-01T10:07:58;6.20;;;1.70;;
17686;SDS011;8962;52.538;13.266;2023-02-01T10:10:30;5.28;;;1.92;;
17686;SDS011;8962;52.538;13.266;2023-02-01T10:13:14;4.70;;;1.67;;
17686;SDS011;8962;52.538;13.266;2023-02-01T10:16:00;7.03;;;1.70;;
17686;SDS011;8962;52.538;13.266;2023-02-01T10:21:34;4.53;;;1.90;;
17686;SDS011;8962;52.538;13.266;2023-02-01T10:24:12;7.70;;;1.60;;
17686;SDS011;8962;52.538;13.266;2023-02-01T10:27:08;6.38;;;2.03;;
17686;SDS011;8962;52.538;13.266;2023-02-01T10:29:40;9.07;;;1.98;;
17686;SDS011;8962;52.538;13.266;2023-02-01T10:32:10;8.25;;;1.75;;
17686;SDS011;8962;52.538;13.266;2023-02-01T10:34:40;7.00;;;2.45;;
17686;SDS011;8962;52.538;13.266;2023-02-01T10:37:16;11.18;;;2.33;;
17686;SDS011;8962;52.538;13.266;2023-02-01T10:39:49;8.88;;;2.03;;
17686;SDS011;8962;52.538;13.266;2023-02-01T10:42:20;9.15;;;1.65;;
17686;SDS011;8962;52.538;13.266;2023-02-01T10:44:50;6.60;;;1.77;;
17686;SDS011;8962;52.538;13.266;2023-02-01T10:47:18;9.73;;;2.10;;
17686;SDS011;8962;52.538;13.266;2023-02-01T10:49:47;5.78;;;1.80;;
17686;SDS011;8962;52.538;13.266;2023-02-01T10:52:23;7.20;;;1.83;;
17686;SDS011;8962;52.538;13.266;2023-02-01T10:58:14;6.60;;;2.30;;
17686;SDS011;8962;52.538;13.266;2023-02-01T11:00:44;9.60;;;2.58;;
17686;SDS011;8962;52.538;13.266;2023-02-01T11:06:03;10.75;;;2.60;;
17686;SDS011;8962;52.538;13.266;2023-02-01T11:08:43;9.93;;;2.92;;
17686;SDS011;8962;52.538;13.266;2023-02-01T11:11:13;8.88;;;2.47;;
17686;SDS011;8962;52.538;13.266;2023-02-01T11:13:40;8.48;;;2.50;;
17686;SDS011;8962;52.538;13.266;2023-02-01T11:16:11;12.88;;;3.17;;
17686;SDS011;8962;52.538;13.266;2023-02-01T11:18:39;12.07;;;3.00;;
17686;SDS011;8962;52.538;13.266;2023-02-01T11:21:07;10.15;;;2.65;;
17686;SDS011;8962;52.538;13.266;2023-02-01T11:23:39;9.80;;;2.58;;
17686;SDS011;8962;52.538;13.266;2023-02-01T11:26:12;14.68;;;3.15;;
17686;SDS011;8962;52.538;13.266;2023-02-01T11:28:44;11.90;;;2.53;;
17686;SDS011;8962;52.538;13.266;2023-02-01T11:31:18;10.13;;;2.40;;
17686;SDS011;8962;52.538;13.266;2023-02-01T11:33:48;11.43;;;2.90;;
17686;SDS011;8962;52.538;13.266;2023-02-01T11:36:20;8.20;;;2.70;;
17686;SDS011;8962;52.538;13.266;2023-02-01T11:38:54;18.92;;;3.85;;
17686;SDS011;8962;52.538;13.266;2023-02-01T11:41:40;14.75;;;3.10;;
17686;SDS011;8962;52.538;13.266;2023-02-01T11:44:16;13.43;;;2.70;;
17686;SDS011;8962;52.538;13.266;2023-02-01T11:46:48;13.20;;;2.95;;
17686;SDS011;8962;52.538;13.266;2023-02-01T11:49:19;9.23;;;2.20;;
17686;SDS011;8962;52.538;13.266;2023-02-01T11:51:52;10.00;;;2.35;;
17686;SDS011;8962;52.538;13.266;2023-02-01T11:54:35;9.05;;;2.33;;
17686;SDS011;8962;52.538;13.266;2023-02-01T11:57:20;8.60;;;2.13;;
17686;SDS011;8962;52.538;13.266;2023-02-01T12:00:05;7.90;;;2.15;;
17686;SDS011;8962;52.538;13.266;2023-02-01T12:02:55;10.15;;;2.25;;
17686;SDS011;8962;52.538;13.266;2023-02-01T12:05:37;7.03;;;2.30;;
17686;SDS011;8962;52.538;13.266;2023-02-01T12:08:17;6.80;;;2.22;;
17686;SDS011;8962;52.538;13.266;2023-02-01T12:10:58;9.52;;;2.38;;
17686;SDS011;8962;52.538;13.266;2023-02-01T12:13:39;10.20;;;2.53;;
17686;SDS011;8962;52.538;13.266;2023-02-01T12:16:17;10.68;;;2.22;;
17686;SDS011;8962;52.538;13.266;2023-02-01T12:19:10;10.05;;;2.30;;
17686;SDS011;8962;52.538;13.266;2023-02-01T12:25:00;14.15;;;2.65;;
17686;SDS011;8962;52.538;13.266;2023-02-01T12:30:56;15.57;;;3.10;;
17686;SDS011;8962;52.538;13.266;2023-02-01T12:33:35;12.75;;;2.90;;
17686;SDS011;8962;52.538;13.266;2023-02-01T12:36:12;7.97;;;2.40;;
17686;SDS011;8962;52.538;13.266;2023-02-01T12:38:44;11.20;;;2.97;;
17686;SDS011;8962;52.538;13.266;2023-02-01T12:41:24;13.77;;;2.92;;
17686;SDS011;8962;52.538;13.266;2023-02-01T12:47:16;11.23;;;3.20;;
17686;SDS011;8962;52.538;13.266;2023-02-01T12:49:52;12.05;;;3.15;;
17686;SDS011;8962;52.538;13.266;2023-02-01T12:52:26;11.68;;;2.97;;
17686;SDS011;8962;52.538;13.266;2023-02-01T12:55:06;11.63;;;3.10;;
17686;SDS011;8962;52.538;13.266;2023-02-01T12:57:43;14.18;;;3.05;;
17686;SDS011;8962;52.538;13.266;2023-02-01T13:00:20;10.82;;;2.95;;
17686;SDS011;8962;52.538;13.266;2023-02-01T13:02:54;15.65;;;3.15;;
17686;SDS011;8962;52.538;13.266;2023-02-01T13:05:27;12.48;;;3.30;;
17686;SDS011;8962;52.538;13.266;2023-02-01T13:08:00;15.30;;;2.90;;
17686;SDS011;8962;52.538;13.266;2023-02-01T13:10:31;11.90;;;2.78;;
17686;SDS011;8962;52.538;13.266;2023-02-01T13:13:03;13.20;;;3.03;;
17686;SDS011;8962;52.538;13.266;2023-02-01T13:15:40;9.50;;;2.47;;
17686;SDS011;8962;52.538;13.266;2023-02-01T13:18:13;7.30;;;1.92;;
17686;SDS011;8962;52.538;13.266;2023-02-01T13:20:46;12.07;;;2.80;;
17686;SDS011;8962;52.538;13.266;2023-02-01T13:23:27;13.75;;;2.20;;
17686;SDS011;8962;52.538;13.266;2023-02-01T13:25:56;11.45;;;2.83;;
17686;SDS011;8962;52.538;13.266;2023-02-01T13:28:25;17.30;;;3.10;;
17686;SDS011;8962;52.538;13.266;2023-02-01T13:31:00;9.65;;;2.38;;
17686;SDS011;8962;52.538;13.266;2023-02-01T13:33:48;11.80;;;3.20;;
17686;SDS011;8962;52.538;13.266;2023-02-01T13:39:27;9.70;;;3.03;;
17686;SDS011;8962;52.538;13.266;2023-02-01T13:42:05;20.70;;;5.30;;
17686;SDS011;8962;52.538;13.266;2023-02-01T13:44:42;13.40;;;3.15;;
17686;SDS011;8962;52.538;13.266;2023-02-01T13:47:15;16.00;;;4.13;;
17686;SDS011;8962;52.538;13.266;2023-02-01T13:49:50;17.17;;;3.80;;
17686;SDS011;8962;52.538;13.266;2023-02-01T13:52:23;12.45;;;2.95;;
17686;SDS011;8962;52.538;13.266;2023-02-01T13:57:51;10.60;;;2.90;;
17686;SDS011;8962;52.538;13.266;2023-02-01T14:00:27;12.80;;;2.42;;
17686;SDS011;8962;52.538;13.266;2023-02-01T14:09:15;15.85;;;3.25;;
17686;SDS011;8962;52.538;13.266;2023-02-01T14:11:48;11.15;;;2.63;;
17686;SDS011;8962;52.538;13.266;2023-02-01T14:23:18;14.68;;;3.47;;
17686;SDS011;8962;52.538;13.266;2023-02-01T14:26:04;16.40;;;3.83;;
17686;SDS011;8962;52.538;13.266;2023-02-01T14:28:54;13.57;;;3.92;;
17686;SDS011;8962;52.538;13.266;2023-02-01T14:34:15;15.88;;;3.63;;
17686;SDS011;8962;52.538;13.266;2023-02-01T14:36:47;12.52;;;3.33;;
17686;SDS011;8962;52.538;13.266;2023-02-01T14:39:21;17.17;;;3.50;;
17686;SDS011;8962;52.538;13.266;2023-02-01T14:41:59;14.15;;;3.53;;
17686;SDS011;8962;52.538;13.266;2023-02-01T14:44:34;13.55;;;3.47;;
17686;SDS011;8962;52.538;13.266;2023-02-01T14:49:56;17.15;;;3.58;;
17686;SDS011;8962;52.538;13.266;2023-02-01T14:52:39;16.90;;;3.75;;
17686;SDS011;8962;52.538;13.266;2023-02-01T14:55:13;14.48;;;3.63;;
17686;SDS011;8962;52.538;13.266;2023-02-01T14:57:44;14.85;;;2.60;;
17686;SDS011;8962;52.538;13.266;2023-02-01T15:00:20;13.68;;;3.00;;
17686;SDS011;8962;52.538;13.266;2023-02-01T15:02:49;12.13;;;2.90;;
17686;SDS011;8962;52.538;13.266;2023-02-01T15:07:57;13.27;;;3.25;;
17686;SDS011;8962;52.538;13.266;2023-02-01T15:10:31;8.27;;;2.67;;
17686;SDS011;8962;52.538;13.266;2023-02-01T15:13:12;6.78;;;2.58;;
17686;SDS011;8962;52.538;13.266;2023-02-01T15:15:59;7.53;;;2.50;;
17686;SDS011;8962;52.538;13.266;2023-02-01T15:18:31;8.32;;;2.53;;
17686;SDS011;8962;52.538;13.266;2023-02-01T15:20:59;7.13;;;2.30;;
17686;SDS011;8962;52.538;13.266;2023-02-01T15:23:28;6.15;;;2.10;;
17686;SDS011;8962;52.538;13.266;2023-02-01T15:25:57;8.82;;;2.60;;
17686;SDS011;8962;52.538;13.266;2023-02-01T15:28:25;7.80;;;2.38;;
17686;SDS011;8962;52.538;13.266;2023-02-01T15:30:53;7.05;;;2.30;;
17686;SDS011;8962;52.538;13.266;2023-02-01T15:33:22;7.63;;;1.75;;
17686;SDS011;8962;52.538;13.266;2023-02-01T15:35:50;7.93;;;2.28;;
17686;SDS011;8962;52.538;13.266;2023-02-01T15:38:19;5.10;;;2.05;;
17686;SDS011;8962;52.538;13.266;2023-02-01T15:40:56;4.68;;;1.65;;
17686;SDS011;8962;52.538;13.266;2023-02-01T15:43:27;6.75;;;1.73;;
17686;SDS011;8962;52.538;13.266;2023-02-01T15:45:56;4.47;;;1.60;;
17686;SDS011;8962;52.538;13.266;2023-02-01T15:48:25;3.58;;;1.70;;
17686;SDS011;8962;52.538;13.266;2023-02-01T15:50:53;6.15;;;1.90;;
17686;SDS011;8962;52.538;13.266;2023-02-01T15:53:22;9.23;;;2.08;;